sensor_id;sensor_type;location;lat;lon;timestamp;P1;durP1;ratioP1;P2;durP2;ratioP2
29816;SDS011;16805;52.956;5.906;2023-08-06T00:00:26;7.57;;;4.90;;
29816;SDS011;16805;52.956;5.906;2023-08-06T00:02:51;6.25;;;4.80;;
29816;SDS011;16805;52.956;5.906;2023-08-06T00:05:17;5.70;;;4.68;;
29816;SDS011;16805;52.956;5.906;2023-08-06T00:07:49;6.18;;;4.85;;
29816;SDS011;16805;52.956;5.906;2023-08-06T00:10:16;5.65;;;5.07;;
29816;SDS011;16805;52.956;5.906;2023-08-06T00:12:42;5.53;;;5.03;;
29816;SDS011;16805;52.956;5.906;2023-08-06T00:15:11;5.53;;;5.03;;
29816;SDS011;16805;52.956;5.906;2023-08-06T00:17:37;6.10;;;5.30;;
29816;SDS011;16805;52.956;5.906;2023-08-06T00:20:03;6.38;;;5.78;;
29816;SDS011;16805;52.956;5.906;2023-08-06T00:22:37;5.55;;;5.05;;
29816;SDS011;16805;52.956;5.906;2023-08-06T00:25:03;6.68;;;5.90;;
29816;SDS011;16805;52.956;5.906;2023-08-06T00:27:30;6.13;;;5.40;;
29816;SDS011;16805;52.956;5.906;2023-08-06T00:29:58;5.82;;;5.20;;
29816;SDS011;16805;52.956;5.906;2023-08-06T00:32:24;6.63;;;6.03;;
29816;SDS011;16805;52.956;5.906;2023-08-06T00:34:50;6.40;;;5.80;;
29816;SDS011;16805;52.956;5.906;2023-08-06T00:37:17;7.30;;;6.57;;
29816;SDS011;16805;52.956;5.906;2023-08-06T00:39:43;9.98;;;8.20;;
29816;SDS011;16805;52.956;5.906;2023-08-06T00:42:10;7.07;;;6.38;;
29816;SDS011;16805;52.956;5.906;2023-08-06T00:44:36;7.15;;;6.45;;
29816;SDS011;16805;52.956;5.906;2023-08-06T00:47:02;9.30;;;6.22;;
29816;SDS011;16805;52.956;5.906;2023-08-06T00:49:28;10.65;;;6.80;;
29816;SDS011;16805;52.956;5.906;2023-08-06T00:51:54;7.28;;;6.60;;
29816;SDS011;16805;52.956;5.906;2023-08-06T00:54:21;6.72;;;6.00;;
29816;SDS011;16805;52.956;5.906;2023-08-06T00:56:48;7.25;;;6.65;;
29816;SDS011;16805;52.956;5.906;2023-08-06T00:59:14;7.70;;;6.90;;
29816;SDS011;16805;52.956;5.906;2023-08-06T01:01:40;8.00;;;6.95;;
29816;SDS011;16805;52.956;5.906;2023-08-06T01:04:05;9.85;;;6.95;;
29816;SDS011;16805;52.956;5.906;2023-08-06T01:06:47;7.30;;;6.60;;
29816;SDS011;16805;52.956;5.906;2023-08-06T01:12:00;7.15;;;6.43;;
29816;SDS011;16805;52.956;5.906;2023-08-06T01:14:57;7.43;;;6.72;;
29816;SDS011;16805;52.956;5.906;2023-08-06T01:17:27;7.35;;;6.70;;
29816;SDS011;16805;52.956;5.906;2023-08-06T01:19:54;8.90;;;7.10;;
29816;SDS011;16805;52.956;5.906;2023-08-06T01:22:20;7.05;;;6.45;;
29816;SDS011;16805;52.956;5.906;2023-08-06T01:24:46;8.13;;;7.32;;
29816;SDS011;16805;52.956;5.906;2023-08-06T01:27:17;7.00;;;6.25;;
29816;SDS011;16805;52.956;5.906;2023-08-06T01:29:45;8.40;;;7.10;;
29816;SDS011;16805;52.956;5.906;2023-08-06T01:32:16;8.50;;;6.32;;
29816;SDS011;16805;52.956;5.906;2023-08-06T01:34:43;6.88;;;6.18;;
29816;SDS011;16805;52.956;5.906;2023-08-06T01:37:09;8.02;;;7.32;;
29816;SDS011;16805;52.956;5.906;2023-08-06T01:39:36;7.78;;;6.97;;
29816;SDS011;16805;52.956;5.906;2023-08-06T01:42:01;7.82;;;7.07;;
29816;SDS011;16805;52.956;5.906;2023-08-06T01:44:27;7.95;;;7.25;;
29816;SDS011;16805;52.956;5.906;2023-08-06T01:46:53;10.00;;;7.30;;
29816;SDS011;16805;52.956;5.906;2023-08-06T01:49:21;8.50;;;7.60;;
29816;SDS011;16805;52.956;5.906;2023-08-06T01:51:47;8.00;;;6.60;;
29816;SDS011;16805;52.956;5.906;2023-08-06T01:54:12;7.60;;;5.97;;
29816;SDS011;16805;52.956;5.906;2023-08-06T01:56:38;9.40;;;6.22;;
29816;SDS011;16805;52.956;5.906;2023-08-06T01:59:04;7.03;;;6.32;;
29816;SDS011;16805;52.956;5.906;2023-08-06T02:01:29;7.43;;;6.65;;
29816;SDS011;16805;52.956;5.906;2023-08-06T02:03:55;7.30;;;6.13;;
29816;SDS011;16805;52.956;5.906;2023-08-06T02:06:21;8.05;;;6.10;;
29816;SDS011;16805;52.956;5.906;2023-08-06T02:08:46;6.47;;;5.88;;
29816;SDS011;16805;52.956;5.906;2023-08-06T02:11:12;7.85;;;6.70;;
29816;SDS011;16805;52.956;5.906;2023-08-06T02:13:38;6.55;;;5.95;;
29816;SDS011;16805;52.956;5.906;2023-08-06T02:16:03;6.68;;;5.88;;
29816;SDS011;16805;52.956;5.906;2023-08-06T02:18:33;7.03;;;6.28;;
29816;SDS011;16805;52.956;5.906;2023-08-06T02:20:59;7.97;;;7.18;;
29816;SDS011;16805;52.956;5.906;2023-08-06T02:23:25;7.32;;;6.63;;
29816;SDS011;16805;52.956;5.906;2023-08-06T02:26:01;6.95;;;6.30;;
29816;SDS011;16805;52.956;5.906;2023-08-06T02:28:29;6.85;;;6.15;;
29816;SDS011;16805;52.956;5.906;2023-08-06T02:30:55;7.28;;;6.57;;
29816;SDS011;16805;52.956;5.906;2023-08-06T02:33:21;7.85;;;6.65;;
29816;SDS011;16805;52.956;5.906;2023-08-06T02:35:48;9.80;;;7.28;;
29816;SDS011;16805;52.956;5.906;2023-08-06T02:38:14;7.80;;;6.97;;
29816;SDS011;16805;52.956;5.906;2023-08-06T02:40:43;7.95;;;6.78;;
29816;SDS011;16805;52.956;5.906;2023-08-06T02:43:10;7.75;;;6.95;;
29816;SDS011;16805;52.956;5.906;2023-08-06T02:45:36;8.02;;;7.05;;
29816;SDS011;16805;52.956;5.906;2023-08-06T02:48:03;7.75;;;6.50;;
29816;SDS011;16805;52.956;5.906;2023-08-06T02:50:29;6.72;;;6.05;;
29816;SDS011;16805;52.956;5.906;2023-08-06T02:52:54;9.18;;;7.47;;
29816;SDS011;16805;52.956;5.906;2023-08-06T02:55:20;6.40;;;5.80;;
29816;SDS011;16805;52.956;5.906;2023-08-06T02:57:46;7.55;;;6.85;;
29816;SDS011;16805;52.956;5.906;2023-08-06T03:00:11;8.70;;;6.68;;
29816;SDS011;16805;52.956;5.906;2023-08-06T03:02:37;12.23;;;6.78;;
29816;SDS011;16805;52.956;5.906;2023-08-06T03:05:03;6.45;;;5.85;;
29816;SDS011;16805;52.956;5.906;2023-08-06T03:07:31;8.18;;;6.85;;
29816;SDS011;16805;52.956;5.906;2023-08-06T03:09:58;8.52;;;7.38;;
29816;SDS011;16805;52.956;5.906;2023-08-06T03:12:26;8.30;;;5.88;;
29816;SDS011;16805;52.956;5.906;2023-08-06T03:14:52;11.15;;;6.30;;
29816;SDS011;16805;52.956;5.906;2023-08-06T03:17:18;7.15;;;6.40;;
29816;SDS011;16805;52.956;5.906;2023-08-06T03:19:43;6.43;;;5.82;;
29816;SDS011;16805;52.956;5.906;2023-08-06T03:22:10;7.47;;;6.28;;
29816;SDS011;16805;52.956;5.906;2023-08-06T03:24:35;6.25;;;5.65;;
29816;SDS011;16805;52.956;5.906;2023-08-06T03:27:01;8.02;;;6.85;;
29816;SDS011;16805;52.956;5.906;2023-08-06T03:29:28;7.28;;;6.50;;
29816;SDS011;16805;52.956;5.906;2023-08-06T03:31:54;9.98;;;6.60;;
29816;SDS011;16805;52.956;5.906;2023-08-06T03:34:19;7.93;;;6.60;;
29816;SDS011;16805;52.956;5.906;2023-08-06T03:36:45;6.78;;;5.85;;
29816;SDS011;16805;52.956;5.906;2023-08-06T03:39:10;8.13;;;6.25;;
29816;SDS011;16805;52.956;5.906;2023-08-06T03:41:36;6.32;;;5.72;;
29816;SDS011;16805;52.956;5.906;2023-08-06T03:44:02;10.73;;;6.40;;
29816;SDS011;16805;52.956;5.906;2023-08-06T03:46:29;7.68;;;6.97;;
29816;SDS011;16805;52.956;5.906;2023-08-06T03:48:57;6.25;;;5.55;;
29816;SDS011;16805;52.956;5.906;2023-08-06T03:51:23;9.27;;;6.75;;
29816;SDS011;16805;52.956;5.906;2023-08-06T03:53:48;9.23;;;6.00;;
29816;SDS011;16805;52.956;5.906;2023-08-06T03:56:14;6.25;;;5.75;;
29816;SDS011;16805;52.956;5.906;2023-08-06T03:58:40;6.25;;;5.65;;
29816;SDS011;16805;52.956;5.906;2023-08-06T04:01:05;6.28;;;5.45;;
29816;SDS011;16805;52.956;5.906;2023-08-06T04:03:31;8.38;;;7.45;;
29816;SDS011;16805;52.956;5.906;2023-08-06T04:05:57;6.53;;;5.88;;
29816;SDS011;16805;52.956;5.906;2023-08-06T04:08:22;6.63;;;5.97;;
29816;SDS011;16805;52.956;5.906;2023-08-06T04:10:52;6.07;;;5.47;;
29816;SDS011;16805;52.956;5.906;2023-08-06T04:13:18;8.45;;;5.97;;
29816;SDS011;16805;52.956;5.906;2023-08-06T04:15:44;6.97;;;6.03;;
29816;SDS011;16805;52.956;5.906;2023-08-06T04:18:09;6.32;;;5.40;;
29816;SDS011;16805;52.956;5.906;2023-08-06T04:20:42;5.82;;;5.13;;
29816;SDS011;16805;52.956;5.906;2023-08-06T04:23:11;7.35;;;6.50;;
29816;SDS011;16805;52.956;5.906;2023-08-06T04:25:38;7.80;;;7.00;;
29816;SDS011;16805;52.956;5.906;2023-08-06T04:28:04;12.35;;;5.28;;
29816;SDS011;16805;52.956;5.906;2023-08-06T04:30:29;7.13;;;6.43;;
29816;SDS011;16805;52.956;5.906;2023-08-06T04:32:58;7.30;;;6.57;;
29816;SDS011;16805;52.956;5.906;2023-08-06T04:35:24;6.80;;;6.13;;
29816;SDS011;16805;52.956;5.906;2023-08-06T04:37:49;7.35;;;6.65;;
29816;SDS011;16805;52.956;5.906;2023-08-06T04:40:15;7.85;;;6.25;;
29816;SDS011;16805;52.956;5.906;2023-08-06T04:42:41;7.50;;;6.78;;
29816;SDS011;16805;52.956;5.906;2023-08-06T04:45:07;7.18;;;6.38;;
29816;SDS011;16805;52.956;5.906;2023-08-06T04:47:32;6.95;;;6.25;;
29816;SDS011;16805;52.956;5.906;2023-08-06T04:49:58;7.10;;;6.40;;
29816;SDS011;16805;52.956;5.906;2023-08-06T04:52:24;7.13;;;6.40;;
29816;SDS011;16805;52.956;5.906;2023-08-06T04:54:53;7.32;;;6.63;;
29816;SDS011;16805;52.956;5.906;2023-08-06T04:57:19;6.65;;;6.03;;
29816;SDS011;16805;52.956;5.906;2023-08-06T04:59:45;6.40;;;5.72;;
29816;SDS011;16805;52.956;5.906;2023-08-06T05:02:11;6.97;;;6.32;;
29816;SDS011;16805;52.956;5.906;2023-08-06T05:04:36;6.97;;;6.28;;
29816;SDS011;16805;52.956;5.906;2023-08-06T05:07:03;8.27;;;6.85;;
29816;SDS011;16805;52.956;5.906;2023-08-06T05:09:30;7.68;;;6.63;;
29816;SDS011;16805;52.956;5.906;2023-08-06T05:11:56;7.03;;;6.32;;
29816;SDS011;16805;52.956;5.906;2023-08-06T05:14:21;8.77;;;6.82;;
29816;SDS011;16805;52.956;5.906;2023-08-06T05:16:48;6.80;;;6.10;;
29816;SDS011;16805;52.956;5.906;2023-08-06T05:19:14;7.78;;;6.95;;
29816;SDS011;16805;52.956;5.906;2023-08-06T05:21:39;7.82;;;7.03;;
29816;SDS011;16805;52.956;5.906;2023-08-06T05:24:05;6.88;;;6.13;;
29816;SDS011;16805;52.956;5.906;2023-08-06T05:26:31;8.32;;;6.68;;
29816;SDS011;16805;52.956;5.906;2023-08-06T05:28:56;7.28;;;6.22;;
29816;SDS011;16805;52.956;5.906;2023-08-06T05:31:26;8.82;;;7.22;;
29816;SDS011;16805;52.956;5.906;2023-08-06T05:33:54;6.97;;;6.30;;
29816;SDS011;16805;52.956;5.906;2023-08-06T05:36:20;7.15;;;6.10;;
29816;SDS011;16805;52.956;5.906;2023-08-06T05:38:46;6.97;;;6.38;;
29816;SDS011;16805;52.956;5.906;2023-08-06T05:41:12;6.93;;;6.28;;
29816;SDS011;16805;52.956;5.906;2023-08-06T05:43:38;8.35;;;6.82;;
29816;SDS011;16805;52.956;5.906;2023-08-06T05:46:04;8.70;;;6.93;;
29816;SDS011;16805;52.956;5.906;2023-08-06T05:48:30;7.10;;;5.95;;
29816;SDS011;16805;52.956;5.906;2023-08-06T05:50:57;6.28;;;5.72;;
29816;SDS011;16805;52.956;5.906;2023-08-06T05:53:23;6.25;;;5.65;;
29816;SDS011;16805;52.956;5.906;2023-08-06T05:55:49;7.78;;;6.97;;
29816;SDS011;16805;52.956;5.906;2023-08-06T05:58:15;6.88;;;6.15;;
29816;SDS011;16805;52.956;5.906;2023-08-06T06:00:41;6.75;;;6.05;;
29816;SDS011;16805;52.956;5.906;2023-08-06T06:03:07;7.47;;;6.40;;
29816;SDS011;16805;52.956;5.906;2023-08-06T06:05:33;6.75;;;6.05;;
29816;SDS011;16805;52.956;5.906;2023-08-06T06:07:58;7.05;;;6.35;;
29816;SDS011;16805;52.956;5.906;2023-08-06T06:10:24;6.32;;;5.72;;
29816;SDS011;16805;52.956;5.906;2023-08-06T06:12:50;8.13;;;6.65;;
29816;SDS011;16805;52.956;5.906;2023-08-06T06:15:15;7.32;;;6.65;;
29816;SDS011;16805;52.956;5.906;2023-08-06T06:17:41;8.60;;;5.70;;
29816;SDS011;16805;52.956;5.906;2023-08-06T06:20:07;8.20;;;5.82;;
29816;SDS011;16805;52.956;5.906;2023-08-06T06:22:33;6.90;;;6.18;;
29816;SDS011;16805;52.956;5.906;2023-08-06T06:24:58;5.63;;;5.13;;
29816;SDS011;16805;52.956;5.906;2023-08-06T06:27:24;15.77;;;6.30;;
29816;SDS011;16805;52.956;5.906;2023-08-06T06:29:50;7.90;;;5.38;;
29816;SDS011;16805;52.956;5.906;2023-08-06T06:32:17;6.30;;;5.40;;
29816;SDS011;16805;52.956;5.906;2023-08-06T06:34:43;6.35;;;5.75;;
29816;SDS011;16805;52.956;5.906;2023-08-06T06:37:08;8.43;;;6.40;;
29816;SDS011;16805;52.956;5.906;2023-08-06T06:39:34;6.25;;;5.65;;
29816;SDS011;16805;52.956;5.906;2023-08-06T06:42:00;7.68;;;6.70;;
29816;SDS011;16805;52.956;5.906;2023-08-06T06:44:25;6.18;;;5.57;;
29816;SDS011;16805;52.956;5.906;2023-08-06T06:46:51;7.47;;;6.78;;
29816;SDS011;16805;52.956;5.906;2023-08-06T06:49:17;8.32;;;5.78;;
29816;SDS011;16805;52.956;5.906;2023-08-06T06:51:43;7.07;;;6.38;;
29816;SDS011;16805;52.956;5.906;2023-08-06T06:54:08;10.15;;;6.20;;
29816;SDS011;16805;52.956;5.906;2023-08-06T06:56:34;6.57;;;5.70;;
29816;SDS011;16805;52.956;5.906;2023-08-06T06:59:00;9.18;;;7.30;;
29816;SDS011;16805;52.956;5.906;2023-08-06T07:01:25;7.30;;;6.60;;
29816;SDS011;16805;52.956;5.906;2023-08-06T07:03:51;11.40;;;6.72;;
29816;SDS011;16805;52.956;5.906;2023-08-06T07:06:17;7.72;;;6.47;;
29816;SDS011;16805;52.956;5.906;2023-08-06T07:08:43;7.85;;;6.30;;
29816;SDS011;16805;52.956;5.906;2023-08-06T07:11:09;6.65;;;5.95;;
29816;SDS011;16805;52.956;5.906;2023-08-06T07:13:35;7.65;;;6.95;;
29816;SDS011;16805;52.956;5.906;2023-08-06T07:16:01;7.95;;;7.15;;
29816;SDS011;16805;52.956;5.906;2023-08-06T07:18:27;6.38;;;5.78;;
29816;SDS011;16805;52.956;5.906;2023-08-06T07:20:54;7.65;;;5.90;;
29816;SDS011;16805;52.956;5.906;2023-08-06T07:23:21;7.13;;;6.43;;
29816;SDS011;16805;52.956;5.906;2023-08-06T07:25:48;7.78;;;6.15;;
29816;SDS011;16805;52.956;5.906;2023-08-06T07:28:14;7.38;;;5.80;;
29816;SDS011;16805;52.956;5.906;2023-08-06T07:30:41;6.70;;;6.05;;
29816;SDS011;16805;52.956;5.906;2023-08-06T07:33:08;6.53;;;5.97;;
29816;SDS011;16805;52.956;5.906;2023-08-06T07:35:34;10.52;;;7.05;;
29816;SDS011;16805;52.956;5.906;2023-08-06T07:38:00;7.15;;;6.38;;
29816;SDS011;16805;52.956;5.906;2023-08-06T07:40:26;6.88;;;6.28;;
29816;SDS011;16805;52.956;5.906;2023-08-06T07:42:52;7.13;;;6.43;;
29816;SDS011;16805;52.956;5.906;2023-08-06T07:45:18;7.38;;;6.68;;
29816;SDS011;16805;52.956;5.906;2023-08-06T07:47:45;7.38;;;6.70;;
29816;SDS011;16805;52.956;5.906;2023-08-06T07:50:10;6.97;;;6.30;;
29816;SDS011;16805;52.956;5.906;2023-08-06T07:52:36;8.30;;;6.28;;
29816;SDS011;16805;52.956;5.906;2023-08-06T07:55:02;6.75;;;6.05;;
29816;SDS011;16805;52.956;5.906;2023-08-06T07:57:33;6.65;;;6.05;;
29816;SDS011;16805;52.956;5.906;2023-08-06T07:59:59;7.00;;;6.13;;
29816;SDS011;16805;52.956;5.906;2023-08-06T08:02:25;7.18;;;5.65;;
29816;SDS011;16805;52.956;5.906;2023-08-06T08:04:51;6.60;;;6.00;;
29816;SDS011;16805;52.956;5.906;2023-08-06T08:07:17;9.13;;;5.15;;
29816;SDS011;16805;52.956;5.906;2023-08-06T08:09:43;7.15;;;5.75;;
29816;SDS011;16805;52.956;5.906;2023-08-06T08:12:09;7.38;;;6.32;;
29816;SDS011;16805;52.956;5.906;2023-08-06T08:14:35;5.57;;;5.07;;
29816;SDS011;16805;52.956;5.906;2023-08-06T08:17:05;5.95;;;5.43;;
29816;SDS011;16805;52.956;5.906;2023-08-06T08:19:31;6.55;;;5.28;;
29816;SDS011;16805;52.956;5.906;2023-08-06T08:21:57;5.88;;;5.38;;
29816;SDS011;16805;52.956;5.906;2023-08-06T08:24:23;6.80;;;5.95;;
29816;SDS011;16805;52.956;5.906;2023-08-06T08:26:50;5.85;;;5.22;;
29816;SDS011;16805;52.956;5.906;2023-08-06T08:29:16;6.63;;;6.03;;
29816;SDS011;16805;52.956;5.906;2023-08-06T08:31:42;6.20;;;5.60;;
29816;SDS011;16805;52.956;5.906;2023-08-06T08:34:09;6.28;;;5.28;;
29816;SDS011;16805;52.956;5.906;2023-08-06T08:36:35;7.50;;;6.75;;
29816;SDS011;16805;52.956;5.906;2023-08-06T08:39:00;5.88;;;5.38;;
29816;SDS011;16805;52.956;5.906;2023-08-06T08:41:32;6.57;;;5.35;;
29816;SDS011;16805;52.956;5.906;2023-08-06T08:43:59;5.78;;;5.28;;
29816;SDS011;16805;52.956;5.906;2023-08-06T08:46:34;6.18;;;5.68;;
29816;SDS011;16805;52.956;5.906;2023-08-06T08:49:03;10.40;;;5.10;;
29816;SDS011;16805;52.956;5.906;2023-08-06T08:51:29;6.90;;;4.68;;
29816;SDS011;16805;52.956;5.906;2023-08-06T08:53:56;8.63;;;5.60;;
29816;SDS011;16805;52.956;5.906;2023-08-06T08:56:22;5.68;;;5.22;;
29816;SDS011;16805;52.956;5.906;2023-08-06T08:58:49;6.10;;;5.05;;
29816;SDS011;16805;52.956;5.906;2023-08-06T09:01:15;5.90;;;5.20;;
29816;SDS011;16805;52.956;5.906;2023-08-06T09:03:41;5.78;;;5.07;;
29816;SDS011;16805;52.956;5.906;2023-08-06T09:06:10;6.78;;;6.07;;
29816;SDS011;16805;52.956;5.906;2023-08-06T09:08:39;6.32;;;5.70;;
29816;SDS011;16805;52.956;5.906;2023-08-06T09:11:11;6.90;;;5.30;;
29816;SDS011;16805;52.956;5.906;2023-08-06T09:13:38;5.55;;;5.05;;
29816;SDS011;16805;52.956;5.906;2023-08-06T09:16:04;7.05;;;4.82;;
29816;SDS011;16805;52.956;5.906;2023-08-06T09:18:30;5.38;;;4.88;;
29816;SDS011;16805;52.956;5.906;2023-08-06T09:20:56;6.57;;;5.97;;
29816;SDS011;16805;52.956;5.906;2023-08-06T09:23:29;5.68;;;5.18;;
29816;SDS011;16805;52.956;5.906;2023-08-06T09:25:56;4.30;;;3.80;;
29816;SDS011;16805;52.956;5.906;2023-08-06T09:28:22;4.32;;;3.92;;
29816;SDS011;16805;52.956;5.906;2023-08-06T09:30:49;4.15;;;3.85;;
29816;SDS011;16805;52.956;5.906;2023-08-06T09:33:17;4.47;;;4.03;;
29816;SDS011;16805;52.956;5.906;2023-08-06T09:35:45;4.95;;;4.53;;
29816;SDS011;16805;52.956;5.906;2023-08-06T09:38:11;4.40;;;3.72;;
29816;SDS011;16805;52.956;5.906;2023-08-06T09:40:38;4.32;;;3.00;;
29816;SDS011;16805;52.956;5.906;2023-08-06T09:43:04;3.83;;;3.33;;
29816;SDS011;16805;52.956;5.906;2023-08-06T09:45:34;3.65;;;3.00;;
29816;SDS011;16805;52.956;5.906;2023-08-06T09:48:08;3.00;;;2.42;;
29816;SDS011;16805;52.956;5.906;2023-08-06T09:50:35;3.00;;;2.80;;
29816;SDS011;16805;52.956;5.906;2023-08-06T09:53:02;3.60;;;2.20;;
29816;SDS011;16805;52.956;5.906;2023-08-06T09:55:29;3.40;;;2.58;;
29816;SDS011;16805;52.956;5.906;2023-08-06T09:57:55;4.20;;;2.30;;
29816;SDS011;16805;52.956;5.906;2023-08-06T10:00:21;2.83;;;2.40;;
29816;SDS011;16805;52.956;5.906;2023-08-06T10:02:48;2.80;;;2.60;;
29816;SDS011;16805;52.956;5.906;2023-08-06T10:05:16;3.03;;;2.22;;
29816;SDS011;16805;52.956;5.906;2023-08-06T10:07:43;3.13;;;2.22;;
29816;SDS011;16805;52.956;5.906;2023-08-06T10:10:11;4.28;;;1.90;;
29816;SDS011;16805;52.956;5.906;2023-08-06T10:12:40;3.53;;;2.15;;
29816;SDS011;16805;52.956;5.906;2023-08-06T10:15:16;2.22;;;2.00;;
29816;SDS011;16805;52.956;5.906;2023-08-06T10:17:47;2.42;;;2.22;;
29816;SDS011;16805;52.956;5.906;2023-08-06T10:20:13;1.70;;;1.60;;
29816;SDS011;16805;52.956;5.906;2023-08-06T10:22:42;2.28;;;2.08;;
29816;SDS011;16805;52.956;5.906;2023-08-06T10:25:13;6.72;;;2.20;;
29816;SDS011;16805;52.956;5.906;2023-08-06T10:40:37;2.15;;;1.40;;
29816;SDS011;16805;52.956;5.906;2023-08-06T10:43:05;2.30;;;1.67;;
29816;SDS011;16805;52.956;5.906;2023-08-06T10:45:35;1.88;;;1.50;;
29816;SDS011;16805;52.956;5.906;2023-08-06T10:48:03;6.10;;;1.67;;
29816;SDS011;16805;52.956;5.906;2023-08-06T10:50:29;1.73;;;1.55;;
29816;SDS011;16805;52.956;5.906;2023-08-06T10:52:57;2.38;;;1.40;;
29816;SDS011;16805;52.956;5.906;2023-08-06T10:55:27;3.42;;;1.60;;
29816;SDS011;16805;52.956;5.906;2023-08-06T10:57:54;1.70;;;1.60;;
29816;SDS011;16805;52.956;5.906;2023-08-06T11:00:21;1.63;;;1.40;;
29816;SDS011;16805;52.956;5.906;2023-08-06T11:02:51;1.83;;;1.50;;
29816;SDS011;16805;52.956;5.906;2023-08-06T11:05:18;2.33;;;1.30;;
29816;SDS011;16805;52.956;5.906;2023-08-06T11:07:44;2.22;;;1.48;;
29816;SDS011;16805;52.956;5.906;2023-08-06T11:10:11;1.90;;;1.48;;
29816;SDS011;16805;52.956;5.906;2023-08-06T11:12:38;1.02;;;0.93;;
29816;SDS011;16805;52.956;5.906;2023-08-06T11:15:04;3.65;;;1.10;;
29816;SDS011;16805;52.956;5.906;2023-08-06T11:17:31;3.00;;;1.10;;
29816;SDS011;16805;52.956;5.906;2023-08-06T11:20:01;1.30;;;1.20;;
29816;SDS011;16805;52.956;5.906;2023-08-06T11:22:30;1.10;;;1.00;;
29816;SDS011;16805;52.956;5.906;2023-08-06T11:24:56;2.33;;;1.10;;
29816;SDS011;16805;52.956;5.906;2023-08-06T11:27:22;1.38;;;1.23;;
29816;SDS011;16805;52.956;5.906;2023-08-06T11:29:48;1.30;;;1.15;;
29816;SDS011;16805;52.956;5.906;2023-08-06T11:32:14;3.40;;;1.10;;
29816;SDS011;16805;52.956;5.906;2023-08-06T11:34:40;2.40;;;1.55;;
29816;SDS011;16805;52.956;5.906;2023-08-06T11:37:06;1.95;;;1.30;;
29816;SDS011;16805;52.956;5.906;2023-08-06T11:39:36;2.17;;;1.27;;
29816;SDS011;16805;52.956;5.906;2023-08-06T11:42:03;2.10;;;1.50;;
29816;SDS011;16805;52.956;5.906;2023-08-06T11:44:33;1.20;;;1.10;;
29816;SDS011;16805;52.956;5.906;2023-08-06T11:47:01;1.92;;;1.40;;
29816;SDS011;16805;52.956;5.906;2023-08-06T11:49:40;2.72;;;1.30;;
29816;SDS011;16805;52.956;5.906;2023-08-06T11:57:10;2.13;;;1.40;;
29816;SDS011;16805;52.956;5.906;2023-08-06T11:59:37;4.72;;;1.55;;
29816;SDS011;16805;52.956;5.906;2023-08-06T12:02:04;1.88;;;1.23;;
29816;SDS011;16805;52.956;5.906;2023-08-06T12:07:29;1.25;;;1.10;;
29816;SDS011;16805;52.956;5.906;2023-08-06T12:09:56;2.10;;;1.38;;
29816;SDS011;16805;52.956;5.906;2023-08-06T12:12:22;1.75;;;1.20;;
29816;SDS011;16805;52.956;5.906;2023-08-06T12:14:48;1.70;;;1.00;;
29816;SDS011;16805;52.956;5.906;2023-08-06T12:17:14;3.45;;;1.70;;
29816;SDS011;16805;52.956;5.906;2023-08-06T12:19:39;1.45;;;1.08;;
29816;SDS011;16805;52.956;5.906;2023-08-06T12:22:05;1.40;;;1.30;;
29816;SDS011;16805;52.956;5.906;2023-08-06T12:24:31;1.50;;;1.40;;
29816;SDS011;16805;52.956;5.906;2023-08-06T12:26:57;2.20;;;1.52;;
29816;SDS011;16805;52.956;5.906;2023-08-06T12:29:23;1.73;;;1.33;;
29816;SDS011;16805;52.956;5.906;2023-08-06T12:31:50;1.15;;;1.08;;
29816;SDS011;16805;52.956;5.906;2023-08-06T12:34:16;1.58;;;1.13;;
29816;SDS011;16805;52.956;5.906;2023-08-06T12:36:41;1.35;;;1.23;;
29816;SDS011;16805;52.956;5.906;2023-08-06T12:39:07;1.85;;;1.20;;
29816;SDS011;16805;52.956;5.906;2023-08-06T12:41:33;2.42;;;1.77;;
29816;SDS011;16805;52.956;5.906;2023-08-06T12:43:58;2.08;;;1.50;;
29816;SDS011;16805;52.956;5.906;2023-08-06T12:46:24;3.38;;;2.20;;
29816;SDS011;16805;52.956;5.906;2023-08-06T12:48:50;2.85;;;1.48;;
29816;SDS011;16805;52.956;5.906;2023-08-06T12:51:15;2.08;;;1.80;;
29816;SDS011;16805;52.956;5.906;2023-08-06T12:53:41;3.10;;;1.35;;
29816;SDS011;16805;52.956;5.906;2023-08-06T12:56:07;2.85;;;1.52;;
29816;SDS011;16805;52.956;5.906;2023-08-06T12:58:33;3.17;;;1.48;;
29816;SDS011;16805;52.956;5.906;2023-08-06T13:00:58;2.08;;;1.50;;
29816;SDS011;16805;52.956;5.906;2023-08-06T13:03:24;1.83;;;1.42;;
29816;SDS011;16805;52.956;5.906;2023-08-06T13:05:50;2.50;;;2.10;;
29816;SDS011;16805;52.956;5.906;2023-08-06T13:08:16;2.80;;;2.25;;
29816;SDS011;16805;52.956;5.906;2023-08-06T13:10:42;2.80;;;2.28;;
29816;SDS011;16805;52.956;5.906;2023-08-06T13:13:08;3.92;;;2.30;;
29816;SDS011;16805;52.956;5.906;2023-08-06T13:15:35;2.95;;;2.70;;
29816;SDS011;16805;52.956;5.906;2023-08-06T13:18:01;2.65;;;2.45;;
29816;SDS011;16805;52.956;5.906;2023-08-06T13:20:27;3.17;;;2.85;;
29816;SDS011;16805;52.956;5.906;2023-08-06T13:22:55;2.42;;;2.22;;
29816;SDS011;16805;52.956;5.906;2023-08-06T13:25:21;2.25;;;2.05;;
29816;SDS011;16805;52.956;5.906;2023-08-06T13:27:46;2.47;;;2.28;;
29816;SDS011;16805;52.956;5.906;2023-08-06T13:30:12;2.42;;;2.15;;
29816;SDS011;16805;52.956;5.906;2023-08-06T13:32:38;2.78;;;2.38;;
29816;SDS011;16805;52.956;5.906;2023-08-06T13:35:04;5.47;;;2.88;;
29816;SDS011;16805;52.956;5.906;2023-08-06T13:37:30;2.75;;;2.38;;
29816;SDS011;16805;52.956;5.906;2023-08-06T13:39:56;3.10;;;2.78;;
29816;SDS011;16805;52.956;5.906;2023-08-06T13:42:22;4.85;;;3.38;;
29816;SDS011;16805;52.956;5.906;2023-08-06T13:44:48;4.57;;;3.05;;
29816;SDS011;16805;52.956;5.906;2023-08-06T13:47:13;5.40;;;3.00;;
29816;SDS011;16805;52.956;5.906;2023-08-06T13:49:39;4.13;;;2.90;;
29816;SDS011;16805;52.956;5.906;2023-08-06T13:52:05;2.47;;;2.28;;
29816;SDS011;16805;52.956;5.906;2023-08-06T13:54:30;3.30;;;3.00;;
29816;SDS011;16805;52.956;5.906;2023-08-06T13:56:56;4.03;;;3.15;;
29816;SDS011;16805;52.956;5.906;2023-08-06T13:59:22;3.72;;;2.58;;
29816;SDS011;16805;52.956;5.906;2023-08-06T14:01:49;1.83;;;1.73;;
29816;SDS011;16805;52.956;5.906;2023-08-06T14:04:15;2.45;;;1.80;;
29816;SDS011;16805;52.956;5.906;2023-08-06T14:06:41;2.53;;;2.33;;
29816;SDS011;16805;52.956;5.906;2023-08-06T14:09:07;3.15;;;2.47;;
29816;SDS011;16805;52.956;5.906;2023-08-06T14:11:33;1.90;;;1.58;;
29816;SDS011;16805;52.956;5.906;2023-08-06T14:13:59;1.83;;;1.50;;
29816;SDS011;16805;52.956;5.906;2023-08-06T14:16:25;1.73;;;1.40;;
29816;SDS011;16805;52.956;5.906;2023-08-06T14:18:51;3.17;;;1.70;;
29816;SDS011;16805;52.956;5.906;2023-08-06T14:21:16;1.85;;;1.42;;
29816;SDS011;16805;52.956;5.906;2023-08-06T14:23:42;2.63;;;1.52;;
29816;SDS011;16805;52.956;5.906;2023-08-06T14:26:08;2.45;;;1.40;;
29816;SDS011;16805;52.956;5.906;2023-08-06T14:28:35;2.05;;;1.40;;
29816;SDS011;16805;52.956;5.906;2023-08-06T14:31:01;5.97;;;1.40;;
29816;SDS011;16805;52.956;5.906;2023-08-06T14:33:27;2.00;;;1.55;;
29816;SDS011;16805;52.956;5.906;2023-08-06T14:35:53;2.60;;;1.75;;
29816;SDS011;16805;52.956;5.906;2023-08-06T14:38:18;1.50;;;1.40;;
29816;SDS011;16805;52.956;5.906;2023-08-06T14:40:44;3.92;;;1.95;;
29816;SDS011;16805;52.956;5.906;2023-08-06T14:43:10;3.95;;;2.33;;
29816;SDS011;16805;52.956;5.906;2023-08-06T14:45:39;2.42;;;2.22;;
29816;SDS011;16805;52.956;5.906;2023-08-06T14:48:05;3.05;;;2.22;;
29816;SDS011;16805;52.956;5.906;2023-08-06T14:50:32;2.38;;;1.63;;
29816;SDS011;16805;52.956;5.906;2023-08-06T14:52:57;2.03;;;1.40;;
29816;SDS011;16805;52.956;5.906;2023-08-06T14:55:27;5.22;;;1.60;;
29816;SDS011;16805;52.956;5.906;2023-08-06T14:57:53;1.73;;;1.20;;
29816;SDS011;16805;52.956;5.906;2023-08-06T15:00:19;2.03;;;1.30;;
29816;SDS011;16805;52.956;5.906;2023-08-06T15:02:45;6.03;;;1.40;;
29816;SDS011;16805;52.956;5.906;2023-08-06T15:05:12;2.38;;;1.42;;
29816;SDS011;16805;52.956;5.906;2023-08-06T15:07:37;2.25;;;1.70;;